sensor_id;sensor_type;location;lat;lon;timestamp;P1;durP1;ratioP1;P2;durP2;ratioP2
17145;SDS011;8688;54.444;18.444;2023-05-07T00:00:36;7.80;;;4.50;;
17145;SDS011;8688;54.444;18.444;2023-05-07T00:03:04;8.97;;;5.03;;
17145;SDS011;8688;54.444;18.444;2023-05-07T00:05:31;10.00;;;4.47;;
17145;SDS011;8688;54.444;18.444;2023-05-07T00:07:59;8.40;;;5.00;;
17145;SDS011;8688;54.444;18.444;2023-05-07T00:10:28;7.30;;;4.20;;
17145;SDS011;8688;54.444;18.444;2023-05-07T00:12:56;10.13;;;5.13;;
17145;SDS011;8688;54.444;18.444;2023-05-07T00:15:23;7.07;;;4.60;;
17145;SDS011;8688;54.444;18.444;2023-05-07T00:17:51;9.93;;;4.73;;
17145;SDS011;8688;54.444;18.444;2023-05-07T00:20:18;7.30;;;5.10;;
17145;SDS011;8688;54.444;18.444;2023-05-07T00:22:46;9.67;;;4.40;;
17145;SDS011;8688;54.444;18.444;2023-05-07T00:25:13;9.37;;;4.47;;
17145;SDS011;8688;54.444;18.444;2023-05-07T00:27:42;8.40;;;4.07;;
17145;SDS011;8688;54.444;18.444;2023-05-07T00:30:10;8.50;;;4.40;;
17145;SDS011;8688;54.444;18.444;2023-05-07T00:32:38;14.57;;;4.40;;
17145;SDS011;8688;54.444;18.444;2023-05-07T00:35:06;8.77;;;4.30;;
17145;SDS011;8688;54.444;18.444;2023-05-07T00:37:34;11.47;;;4.10;;
17145;SDS011;8688;54.444;18.444;2023-05-07T00:40:02;9.20;;;4.37;;
17145;SDS011;8688;54.444;18.444;2023-05-07T00:42:32;9.20;;;4.17;;
17145;SDS011;8688;54.444;18.444;2023-05-07T00:45:01;11.37;;;3.93;;
17145;SDS011;8688;54.444;18.444;2023-05-07T00:47:29;9.43;;;4.00;;
17145;SDS011;8688;54.444;18.444;2023-05-07T00:49:58;10.27;;;3.60;;
17145;SDS011;8688;54.444;18.444;2023-05-07T00:52:25;9.13;;;4.07;;
17145;SDS011;8688;54.444;18.444;2023-05-07T00:54:54;9.00;;;3.73;;
17145;SDS011;8688;54.444;18.444;2023-05-07T00:57:21;8.30;;;3.87;;
17145;SDS011;8688;54.444;18.444;2023-05-07T00:59:50;9.17;;;3.93;;
17145;SDS011;8688;54.444;18.444;2023-05-07T01:02:20;11.83;;;4.43;;
17145;SDS011;8688;54.444;18.444;2023-05-07T01:04:47;7.13;;;3.67;;
17145;SDS011;8688;54.444;18.444;2023-05-07T01:07:15;8.40;;;3.90;;
17145;SDS011;8688;54.444;18.444;2023-05-07T01:09:42;8.80;;;4.33;;
17145;SDS011;8688;54.444;18.444;2023-05-07T01:12:10;10.67;;;3.87;;
17145;SDS011;8688;54.444;18.444;2023-05-07T01:14:38;6.70;;;3.50;;
17145;SDS011;8688;54.444;18.444;2023-05-07T01:17:05;10.90;;;3.97;;
17145;SDS011;8688;54.444;18.444;2023-05-07T01:19:35;7.07;;;3.93;;
17145;SDS011;8688;54.444;18.444;2023-05-07T01:22:03;7.23;;;3.63;;
17145;SDS011;8688;54.444;18.444;2023-05-07T01:24:37;6.27;;;3.67;;
17145;SDS011;8688;54.444;18.444;2023-05-07T01:27:05;7.90;;;3.63;;
17145;SDS011;8688;54.444;18.444;2023-05-07T01:29:32;6.50;;;3.70;;
17145;SDS011;8688;54.444;18.444;2023-05-07T01:32:00;8.30;;;3.63;;
17145;SDS011;8688;54.444;18.444;2023-05-07T01:34:30;9.60;;;4.00;;
17145;SDS011;8688;54.444;18.444;2023-05-07T01:36:59;6.40;;;3.63;;
17145;SDS011;8688;54.444;18.444;2023-05-07T01:39:28;11.23;;;4.17;;
17145;SDS011;8688;54.444;18.444;2023-05-07T01:41:58;9.57;;;3.47;;
17145;SDS011;8688;54.444;18.444;2023-05-07T01:44:26;10.23;;;3.27;;
17145;SDS011;8688;54.444;18.444;2023-05-07T01:46:55;9.23;;;3.87;;
17145;SDS011;8688;54.444;18.444;2023-05-07T01:49:23;7.67;;;3.53;;
17145;SDS011;8688;54.444;18.444;2023-05-07T01:51:51;9.50;;;3.90;;
17145;SDS011;8688;54.444;18.444;2023-05-07T01:54:19;9.83;;;3.90;;
17145;SDS011;8688;54.444;18.444;2023-05-07T01:56:52;11.10;;;4.17;;
17145;SDS011;8688;54.444;18.444;2023-05-07T01:59:21;9.90;;;3.77;;
17145;SDS011;8688;54.444;18.444;2023-05-07T02:01:49;8.43;;;4.10;;
17145;SDS011;8688;54.444;18.444;2023-05-07T02:04:17;8.67;;;4.20;;
17145;SDS011;8688;54.444;18.444;2023-05-07T02:06:44;8.33;;;4.20;;
17145;SDS011;8688;54.444;18.444;2023-05-07T02:09:13;11.03;;;3.80;;
17145;SDS011;8688;54.444;18.444;2023-05-07T02:11:41;7.03;;;3.93;;
17145;SDS011;8688;54.444;18.444;2023-05-07T02:14:08;10.53;;;3.70;;
17145;SDS011;8688;54.444;18.444;2023-05-07T02:16:37;9.30;;;3.70;;
17145;SDS011;8688;54.444;18.444;2023-05-07T02:19:05;9.87;;;3.90;;
17145;SDS011;8688;54.444;18.444;2023-05-07T02:21:32;10.43;;;3.57;;
17145;SDS011;8688;54.444;18.444;2023-05-07T02:23:59;12.50;;;3.80;;
17145;SDS011;8688;54.444;18.444;2023-05-07T02:26:27;10.93;;;4.23;;
17145;SDS011;8688;54.444;18.444;2023-05-07T02:28:54;7.93;;;3.57;;
17145;SDS011;8688;54.444;18.444;2023-05-07T02:31:22;8.20;;;3.87;;
17145;SDS011;8688;54.444;18.444;2023-05-07T02:33:51;7.50;;;3.97;;
17145;SDS011;8688;54.444;18.444;2023-05-07T02:36:18;10.03;;;4.03;;
17145;SDS011;8688;54.444;18.444;2023-05-07T02:38:46;8.73;;;4.00;;
17145;SDS011;8688;54.444;18.444;2023-05-07T02:41:13;11.43;;;4.10;;
17145;SDS011;8688;54.444;18.444;2023-05-07T02:43:41;8.13;;;3.80;;
17145;SDS011;8688;54.444;18.444;2023-05-07T02:46:08;7.30;;;3.90;;
17145;SDS011;8688;54.444;18.444;2023-05-07T02:48:36;7.43;;;3.97;;
17145;SDS011;8688;54.444;18.444;2023-05-07T02:51:05;7.27;;;4.03;;
17145;SDS011;8688;54.444;18.444;2023-05-07T02:53:32;8.33;;;4.10;;
17145;SDS011;8688;54.444;18.444;2023-05-07T02:56:00;10.67;;;3.90;;
17145;SDS011;8688;54.444;18.444;2023-05-07T02:58:28;7.83;;;3.40;;
17145;SDS011;8688;54.444;18.444;2023-05-07T03:00:56;8.40;;;3.80;;
17145;SDS011;8688;54.444;18.444;2023-05-07T03:03:24;7.80;;;3.83;;
17145;SDS011;8688;54.444;18.444;2023-05-07T03:05:51;6.63;;;3.70;;
17145;SDS011;8688;54.444;18.444;2023-05-07T03:08:20;5.40;;;3.40;;
17145;SDS011;8688;54.444;18.444;2023-05-07T03:10:48;7.87;;;3.57;;
17145;SDS011;8688;54.444;18.444;2023-05-07T03:13:15;7.33;;;3.67;;
17145;SDS011;8688;54.444;18.444;2023-05-07T03:15:48;8.67;;;3.70;;
17145;SDS011;8688;54.444;18.444;2023-05-07T03:18:16;7.50;;;3.40;;
17145;SDS011;8688;54.444;18.444;2023-05-07T03:20:44;10.57;;;3.90;;
17145;SDS011;8688;54.444;18.444;2023-05-07T03:23:11;9.43;;;4.20;;
17145;SDS011;8688;54.444;18.444;2023-05-07T03:25:40;10.97;;;4.50;;
17145;SDS011;8688;54.444;18.444;2023-05-07T03:28:07;10.40;;;5.10;;
17145;SDS011;8688;54.444;18.444;2023-05-07T03:30:35;11.40;;;5.00;;
17145;SDS011;8688;54.444;18.444;2023-05-07T03:33:04;12.37;;;5.03;;
17145;SDS011;8688;54.444;18.444;2023-05-07T03:35:31;12.33;;;5.67;;
17145;SDS011;8688;54.444;18.444;2023-05-07T03:37:59;10.53;;;4.60;;
17145;SDS011;8688;54.444;18.444;2023-05-07T03:40:28;10.50;;;4.87;;
17145;SDS011;8688;54.444;18.444;2023-05-07T03:43:00;9.03;;;4.37;;
17145;SDS011;8688;54.444;18.444;2023-05-07T03:45:28;7.77;;;4.07;;
17145;SDS011;8688;54.444;18.444;2023-05-07T03:47:55;11.00;;;4.10;;
17145;SDS011;8688;54.444;18.444;2023-05-07T03:50:23;8.40;;;4.27;;
17145;SDS011;8688;54.444;18.444;2023-05-07T03:52:50;7.53;;;4.23;;
17145;SDS011;8688;54.444;18.444;2023-05-07T03:55:18;10.33;;;4.10;;
17145;SDS011;8688;54.444;18.444;2023-05-07T03:57:45;8.23;;;4.10;;
17145;SDS011;8688;54.444;18.444;2023-05-07T04:00:15;8.03;;;3.90;;
17145;SDS011;8688;54.444;18.444;2023-05-07T04:02:43;9.17;;;4.07;;
17145;SDS011;8688;54.444;18.444;2023-05-07T04:05:10;9.23;;;3.70;;
17145;SDS011;8688;54.444;18.444;2023-05-07T04:07:38;8.77;;;3.90;;
17145;SDS011;8688;54.444;18.444;2023-05-07T04:10:06;9.53;;;3.57;;
17145;SDS011;8688;54.444;18.444;2023-05-07T04:12:34;11.93;;;3.70;;
17145;SDS011;8688;54.444;18.444;2023-05-07T04:15:01;6.87;;;3.67;;
17145;SDS011;8688;54.444;18.444;2023-05-07T04:17:31;6.10;;;3.33;;
17145;SDS011;8688;54.444;18.444;2023-05-07T04:19:58;8.07;;;3.47;;
17145;SDS011;8688;54.444;18.444;2023-05-07T04:22:26;9.13;;;3.40;;
17145;SDS011;8688;54.444;18.444;2023-05-07T04:24:53;10.40;;;3.13;;
17145;SDS011;8688;54.444;18.444;2023-05-07T04:27:21;13.60;;;3.53;;
17145;SDS011;8688;54.444;18.444;2023-05-07T04:29:48;6.30;;;2.90;;
17145;SDS011;8688;54.444;18.444;2023-05-07T04:32:20;5.20;;;2.77;;
17145;SDS011;8688;54.444;18.444;2023-05-07T04:34:51;4.90;;;2.87;;
17145;SDS011;8688;54.444;18.444;2023-05-07T04:37:19;4.37;;;2.43;;
17145;SDS011;8688;54.444;18.444;2023-05-07T04:39:46;5.77;;;3.03;;
17145;SDS011;8688;54.444;18.444;2023-05-07T04:42:14;4.63;;;2.70;;
17145;SDS011;8688;54.444;18.444;2023-05-07T04:44:42;4.77;;;2.53;;
17145;SDS011;8688;54.444;18.444;2023-05-07T04:47:10;9.27;;;3.17;;
17145;SDS011;8688;54.444;18.444;2023-05-07T04:49:38;5.60;;;2.97;;
17145;SDS011;8688;54.444;18.444;2023-05-07T04:52:07;9.07;;;3.70;;
17145;SDS011;8688;54.444;18.444;2023-05-07T04:54:34;6.73;;;2.73;;
17145;SDS011;8688;54.444;18.444;2023-05-07T04:57:03;6.93;;;2.87;;
17145;SDS011;8688;54.444;18.444;2023-05-07T04:59:31;5.53;;;2.77;;
17145;SDS011;8688;54.444;18.444;2023-05-07T05:01:59;5.33;;;3.10;;
17145;SDS011;8688;54.444;18.444;2023-05-07T05:04:26;7.20;;;2.80;;
17145;SDS011;8688;54.444;18.444;2023-05-07T05:06:54;6.63;;;2.93;;
17145;SDS011;8688;54.444;18.444;2023-05-07T05:09:23;5.77;;;2.53;;
17145;SDS011;8688;54.444;18.444;2023-05-07T05:11:50;4.23;;;2.67;;
17145;SDS011;8688;54.444;18.444;2023-05-07T05:14:18;7.60;;;2.97;;
17145;SDS011;8688;54.444;18.444;2023-05-07T05:16:45;8.27;;;2.90;;
17145;SDS011;8688;54.444;18.444;2023-05-07T05:19:12;5.33;;;2.80;;
17145;SDS011;8688;54.444;18.444;2023-05-07T05:21:40;5.83;;;2.80;;
17145;SDS011;8688;54.444;18.444;2023-05-07T05:24:07;5.87;;;2.93;;
17145;SDS011;8688;54.444;18.444;2023-05-07T05:26:37;6.93;;;2.90;;
17145;SDS011;8688;54.444;18.444;2023-05-07T05:29:04;4.82;;;2.83;;
17145;SDS011;8688;54.444;18.444;2023-05-07T05:31:33;8.37;;;3.37;;
17145;SDS011;8688;54.444;18.444;2023-05-07T05:34:00;4.67;;;2.57;;
17145;SDS011;8688;54.444;18.444;2023-05-07T05:36:28;7.77;;;3.03;;
17145;SDS011;8688;54.444;18.444;2023-05-07T05:38:56;4.57;;;2.65;;
17145;SDS011;8688;54.444;18.444;2023-05-07T05:41:23;4.80;;;2.80;;
17145;SDS011;8688;54.444;18.444;2023-05-07T05:43:52;5.23;;;2.60;;
17145;SDS011;8688;54.444;18.444;2023-05-07T05:46:20;8.17;;;3.03;;
17145;SDS011;8688;54.444;18.444;2023-05-07T05:48:47;5.17;;;2.73;;
17145;SDS011;8688;54.444;18.444;2023-05-07T05:51:15;6.80;;;2.33;;
17145;SDS011;8688;54.444;18.444;2023-05-07T05:53:42;8.60;;;2.40;;
17145;SDS011;8688;54.444;18.444;2023-05-07T05:56:09;8.35;;;2.80;;
17145;SDS011;8688;54.444;18.444;2023-05-07T05:58:37;7.22;;;2.72;;
17145;SDS011;8688;54.444;18.444;2023-05-07T06:01:06;2.90;;;2.20;;
17145;SDS011;8688;54.444;18.444;2023-05-07T06:03:34;4.40;;;2.37;;
17145;SDS011;8688;54.444;18.444;2023-05-07T06:06:01;4.13;;;2.10;;
17145;SDS011;8688;54.444;18.444;2023-05-07T06:08:29;6.38;;;2.50;;
17145;SDS011;8688;54.444;18.444;2023-05-07T06:10:57;4.95;;;2.70;;
17145;SDS011;8688;54.444;18.444;2023-05-07T06:13:25;4.07;;;2.78;;
17145;SDS011;8688;54.444;18.444;2023-05-07T06:15:52;6.13;;;2.75;;
17145;SDS011;8688;54.444;18.444;2023-05-07T06:18:21;6.25;;;2.92;;
17145;SDS011;8688;54.444;18.444;2023-05-07T06:20:49;4.93;;;2.70;;
17145;SDS011;8688;54.444;18.444;2023-05-07T06:23:16;4.88;;;2.67;;
17145;SDS011;8688;54.444;18.444;2023-05-07T06:25:47;6.15;;;2.83;;
17145;SDS011;8688;54.444;18.444;2023-05-07T06:28:15;6.13;;;3.00;;
17145;SDS011;8688;54.444;18.444;2023-05-07T06:30:43;4.70;;;2.28;;
17145;SDS011;8688;54.444;18.444;2023-05-07T06:33:11;3.90;;;2.40;;
17145;SDS011;8688;54.444;18.444;2023-05-07T06:35:40;4.28;;;2.50;;
17145;SDS011;8688;54.444;18.444;2023-05-07T06:38:07;5.90;;;2.50;;
17145;SDS011;8688;54.444;18.444;2023-05-07T06:40:35;6.70;;;2.83;;
17145;SDS011;8688;54.444;18.444;2023-05-07T06:43:03;3.38;;;2.45;;
17145;SDS011;8688;54.444;18.444;2023-05-07T06:45:30;5.68;;;2.55;;
17145;SDS011;8688;54.444;18.444;2023-05-07T06:47:58;4.95;;;2.67;;
17145;SDS011;8688;54.444;18.444;2023-05-07T06:50:25;6.15;;;2.40;;
17145;SDS011;8688;54.444;18.444;2023-05-07T06:52:54;4.28;;;2.28;;
17145;SDS011;8688;54.444;18.444;2023-05-07T06:55:22;7.07;;;2.63;;
17145;SDS011;8688;54.444;18.444;2023-05-07T06:57:49;4.35;;;2.42;;
17145;SDS011;8688;54.444;18.444;2023-05-07T07:00:17;3.55;;;2.13;;
17145;SDS011;8688;54.444;18.444;2023-05-07T07:02:45;5.10;;;2.60;;
17145;SDS011;8688;54.444;18.444;2023-05-07T07:05:13;3.85;;;2.33;;
17145;SDS011;8688;54.444;18.444;2023-05-07T07:07:40;4.75;;;2.33;;
17145;SDS011;8688;54.444;18.444;2023-05-07T07:10:09;5.53;;;2.60;;
17145;SDS011;8688;54.444;18.444;2023-05-07T07:12:37;6.70;;;2.72;;
17145;SDS011;8688;54.444;18.444;2023-05-07T07:15:05;3.30;;;2.28;;
17145;SDS011;8688;54.444;18.444;2023-05-07T07:17:37;6.78;;;2.45;;
17145;SDS011;8688;54.444;18.444;2023-05-07T07:20:05;5.85;;;2.58;;
17145;SDS011;8688;54.444;18.444;2023-05-07T07:22:33;4.35;;;2.42;;
17145;SDS011;8688;54.444;18.444;2023-05-07T07:25:00;5.85;;;2.35;;
17145;SDS011;8688;54.444;18.444;2023-05-07T07:27:29;3.83;;;2.40;;
17145;SDS011;8688;54.444;18.444;2023-05-07T07:29:57;7.38;;;2.58;;
17145;SDS011;8688;54.444;18.444;2023-05-07T07:32:24;3.95;;;2.28;;
17145;SDS011;8688;54.444;18.444;2023-05-07T07:34:52;5.70;;;2.47;;
17145;SDS011;8688;54.444;18.444;2023-05-07T07:37:20;3.40;;;2.20;;
17145;SDS011;8688;54.444;18.444;2023-05-07T07:39:47;7.57;;;2.60;;
17145;SDS011;8688;54.444;18.444;2023-05-07T07:42:15;3.42;;;1.98;;
17145;SDS011;8688;54.444;18.444;2023-05-07T07:44:44;4.75;;;2.10;;
17145;SDS011;8688;54.444;18.444;2023-05-07T07:47:12;3.08;;;1.98;;
17145;SDS011;8688;54.444;18.444;2023-05-07T07:49:39;4.00;;;1.55;;
17145;SDS011;8688;54.444;18.444;2023-05-07T07:52:07;3.05;;;2.15;;
17145;SDS011;8688;54.444;18.444;2023-05-07T07:54:34;4.18;;;2.15;;
17145;SDS011;8688;54.444;18.444;2023-05-07T07:57:02;5.75;;;2.05;;
17145;SDS011;8688;54.444;18.444;2023-05-07T07:59:30;4.43;;;1.98;;
17145;SDS011;8688;54.444;18.444;2023-05-07T08:01:59;4.65;;;2.20;;
17145;SDS011;8688;54.444;18.444;2023-05-07T08:04:27;3.80;;;2.00;;
17145;SDS011;8688;54.444;18.444;2023-05-07T08:06:56;3.22;;;2.03;;
17145;SDS011;8688;54.444;18.444;2023-05-07T08:09:24;4.50;;;1.98;;
17145;SDS011;8688;54.444;18.444;2023-05-07T08:11:52;2.60;;;2.00;;
17145;SDS011;8688;54.444;18.444;2023-05-07T08:14:19;5.57;;;2.00;;
17145;SDS011;8688;54.444;18.444;2023-05-07T08:16:47;2.88;;;2.00;;
17145;SDS011;8688;54.444;18.444;2023-05-07T08:19:18;3.92;;;2.03;;
17145;SDS011;8688;54.444;18.444;2023-05-07T08:21:45;2.88;;;1.60;;
17145;SDS011;8688;54.444;18.444;2023-05-07T08:24:15;3.55;;;1.80;;
17145;SDS011;8688;54.444;18.444;2023-05-07T08:26:44;6.47;;;1.58;;
17145;SDS011;8688;54.444;18.444;2023-05-07T08:29:11;6.47;;;1.67;;
17145;SDS011;8688;54.444;18.444;2023-05-07T08:31:39;5.03;;;1.70;;
17145;SDS011;8688;54.444;18.444;2023-05-07T08:34:06;5.63;;;1.90;;
17145;SDS011;8688;54.444;18.444;2023-05-07T08:36:35;3.42;;;2.08;;
17145;SDS011;8688;54.444;18.444;2023-05-07T08:39:03;2.50;;;1.83;;
17145;SDS011;8688;54.444;18.444;2023-05-07T08:41:31;4.60;;;1.58;;
17145;SDS011;8688;54.444;18.444;2023-05-07T08:44:03;2.28;;;1.67;;
17145;SDS011;8688;54.444;18.444;2023-05-07T08:46:38;4.70;;;2.05;;
17145;SDS011;8688;54.444;18.444;2023-05-07T08:49:06;4.65;;;1.73;;
17145;SDS011;8688;54.444;18.444;2023-05-07T08:51:36;3.85;;;2.03;;
17145;SDS011;8688;54.444;18.444;2023-05-07T08:54:04;5.40;;;2.00;;
17145;SDS011;8688;54.444;18.444;2023-05-07T08:56:32;2.88;;;1.92;;
17145;SDS011;8688;54.444;18.444;2023-05-07T08:58:59;3.35;;;1.70;;
17145;SDS011;8688;54.444;18.444;2023-05-07T09:01:28;2.67;;;1.88;;
17145;SDS011;8688;54.444;18.444;2023-05-07T09:03:56;4.00;;;1.90;;
17145;SDS011;8688;54.444;18.444;2023-05-07T09:06:24;2.75;;;1.60;;
17145;SDS011;8688;54.444;18.444;2023-05-07T09:08:53;4.53;;;1.90;;
17145;SDS011;8688;54.444;18.444;2023-05-07T09:11:22;2.40;;;1.70;;
17145;SDS011;8688;54.444;18.444;2023-05-07T09:13:53;3.60;;;1.60;;
17145;SDS011;8688;54.444;18.444;2023-05-07T09:16:23;5.18;;;2.10;;
17145;SDS011;8688;54.444;18.444;2023-05-07T09:18:52;3.28;;;1.52;;
17145;SDS011;8688;54.444;18.444;2023-05-07T09:21:20;3.03;;;2.00;;
17145;SDS011;8688;54.444;18.444;2023-05-07T09:23:50;3.70;;;1.60;;
17145;SDS011;8688;54.444;18.444;2023-05-07T09:26:19;3.28;;;1.60;;
17145;SDS011;8688;54.444;18.444;2023-05-07T09:28:48;2.65;;;1.70;;
17145;SDS011;8688;54.444;18.444;2023-05-07T09:31:16;3.47;;;1.90;;
17145;SDS011;8688;54.444;18.444;2023-05-07T09:33:44;2.65;;;1.70;;
17145;SDS011;8688;54.444;18.444;2023-05-07T09:36:11;3.88;;;1.77;;
17145;SDS011;8688;54.444;18.444;2023-05-07T09:38:39;4.82;;;1.67;;
17145;SDS011;8688;54.444;18.444;2023-05-07T09:41:08;3.67;;;1.85;;
17145;SDS011;8688;54.444;18.444;2023-05-07T09:43:38;5.30;;;2.13;;
17145;SDS011;8688;54.444;18.444;2023-05-07T09:46:06;3.03;;;1.73;;
17145;SDS011;8688;54.444;18.444;2023-05-07T09:48:39;4.55;;;2.33;;
17145;SDS011;8688;54.444;18.444;2023-05-07T09:51:18;4.25;;;1.90;;
17145;SDS011;8688;54.444;18.444;2023-05-07T09:53:52;4.35;;;1.75;;
17145;SDS011;8688;54.444;18.444;2023-05-07T09:56:20;5.22;;;2.00;;
17145;SDS011;8688;54.444;18.444;2023-05-07T09:58:50;2.53;;;1.30;;
17145;SDS011;8688;54.444;18.444;2023-05-07T10:01:20;3.78;;;1.73;;
17145;SDS011;8688;54.444;18.444;2023-05-07T10:03:49;2.92;;;1.70;;
17145;SDS011;8688;54.444;18.444;2023-05-07T10:06:18;2.97;;;1.50;;
17145;SDS011;8688;54.444;18.444;2023-05-07T10:08:46;3.03;;;1.60;;
17145;SDS011;8688;54.444;18.444;2023-05-07T10:11:15;3.53;;;1.73;;
17145;SDS011;8688;54.444;18.444;2023-05-07T10:13:43;2.53;;;1.65;;
17145;SDS011;8688;54.444;18.444;2023-05-07T10:16:14;3.47;;;1.80;;
17145;SDS011;8688;54.444;18.444;2023-05-07T10:18:41;3.88;;;1.58;;
17145;SDS011;8688;54.444;18.444;2023-05-07T10:21:11;3.83;;;1.90;;
17145;SDS011;8688;54.444;18.444;2023-05-07T10:23:43;3.33;;;1.80;;
17145;SDS011;8688;54.444;18.444;2023-05-07T10:26:12;3.72;;;1.90;;
17145;SDS011;8688;54.444;18.444;2023-05-07T10:28:41;4.90;;;2.10;;
17145;SDS011;8688;54.444;18.444;2023-05-07T10:31:18;3.60;;;1.60;;
17145;SDS011;8688;54.444;18.444;2023-05-07T10:34:03;3.88;;;1.92;;
17145;SDS011;8688;54.444;18.444;2023-05-07T10:36:35;2.58;;;1.58;;
17145;SDS011;8688;54.444;18.444;2023-05-07T10:39:04;2.42;;;1.70;;
17145;SDS011;8688;54.444;18.444;2023-05-07T10:41:34;3.72;;;1.70;;
17145;SDS011;8688;54.444;18.444;2023-05-07T10:44:02;3.72;;;1.63;;
17145;SDS011;8688;54.444;18.444;2023-05-07T10:46:31;4.55;;;1.73;;
17145;SDS011;8688;54.444;18.444;2023-05-07T10:49:06;3.53;;;1.52;;
17145;SDS011;8688;54.444;18.444;2023-05-07T10:51:37;5.72;;;1.75;;
17145;SDS011;8688;54.444;18.444;2023-05-07T10:54:23;3.70;;;2.00;;
17145;SDS011;8688;54.444;18.444;2023-05-07T10:56:51;3.10;;;1.67;;
17145;SDS011;8688;54.444;18.444;2023-05-07T11:02:11;2.83;;;1.52;;
17145;SDS011;8688;54.444;18.444;2023-05-07T11:04:40;2.50;;;1.70;;
17145;SDS011;8688;54.444;18.444;2023-05-07T11:09:57;3.40;;;1.70;;
17145;SDS011;8688;54.444;18.444;2023-05-07T11:18:12;3.55;;;1.75;;
17145;SDS011;8688;54.444;18.444;2023-05-07T11:20:53;3.47;;;1.70;;
17145;SDS011;8688;54.444;18.444;2023-05-07T11:26:30;4.63;;;1.67;;
17145;SDS011;8688;54.444;18.444;2023-05-07T11:29:10;2.22;;;1.67;;
17145;SDS011;8688;54.444;18.444;2023-05-07T11:31:38;3.53;;;1.75;;
17145;SDS011;8688;54.444;18.444;2023-05-07T11:34:07;3.03;;;2.00;;
17145;SDS011;8688;54.444;18.444;2023-05-07T11:36:35;4.43;;;1.70;;
17145;SDS011;8688;54.444;18.444;2023-05-07T11:39:28;4.65;;;1.80;;
17145;SDS011;8688;54.444;18.444;2023-05-07T11:41:57;2.83;;;1.52;;
17145;SDS011;8688;54.444;18.444;2023-05-07T11:44:24;5.60;;;1.70;;
17145;SDS011;8688;54.444;18.444;2023-05-07T11:46:52;4.00;;;1.67;;
17145;SDS011;8688;54.444;18.444;2023-05-07T11:49:21;3.22;;;1.55;;
17145;SDS011;8688;54.444;18.444;2023-05-07T11:51:52;2.65;;;1.88;;
17145;SDS011;8688;54.444;18.444;2023-05-07T11:54:20;4.53;;;1.85;;
17145;SDS011;8688;54.444;18.444;2023-05-07T11:56:47;2.38;;;1.60;;
17145;SDS011;8688;54.444;18.444;2023-05-07T11:59:19;4.35;;;2.00;;
17145;SDS011;8688;54.444;18.444;2023-05-07T12:01:46;7.97;;;1.88;;
17145;SDS011;8688;54.444;18.444;2023-05-07T12:04:18;2.65;;;1.45;;
17145;SDS011;8688;54.444;18.444;2023-05-07T12:06:48;3.45;;;1.80;;
17145;SDS011;8688;54.444;18.444;2023-05-07T12:09:16;2.78;;;1.90;;
17145;SDS011;8688;54.444;18.444;2023-05-07T12:11:45;2.80;;;1.90;;
17145;SDS011;8688;54.444;18.444;2023-05-07T12:14:13;3.10;;;1.60;;
17145;SDS011;8688;54.444;18.444;2023-05-07T12:16:41;4.18;;;1.70;;
17145;SDS011;8688;54.444;18.444;2023-05-07T12:19:10;3.67;;;1.75;;
17145;SDS011;8688;54.444;18.444;2023-05-07T12:21:40;4.55;;;1.73;;
17145;SDS011;8688;54.444;18.444;2023-05-07T12:24:10;4.25;;;1.88;;
17145;SDS011;8688;54.444;18.444;2023-05-07T12:26:37;3.35;;;1.70;;
17145;SDS011;8688;54.444;18.444;2023-05-07T12:29:05;3.75;;;2.05;;
17145;SDS011;8688;54.444;18.444;2023-05-07T12:31:33;3.00;;;1.80;;
17145;SDS011;8688;54.444;18.444;2023-05-07T12:34:03;3.17;;;1.90;;
17145;SDS011;8688;54.444;18.444;2023-05-07T12:36:36;3.85;;;1.88;;
17145;SDS011;8688;54.444;18.444;2023-05-07T12:39:23;4.63;;;1.67;;
17145;SDS011;8688;54.444;18.444;2023-05-07T12:41:54;7.80;;;1.90;;
17145;SDS011;8688;54.444;18.444;2023-05-07T12:44:24;2.38;;;1.63;;
17145;SDS011;8688;54.444;18.444;2023-05-07T12:47:01;4.20;;;2.03;;
17145;SDS011;8688;54.444;18.444;2023-05-07T12:49:28;3.65;;;1.90;;
17145;SDS011;8688;54.444;18.444;2023-05-07T12:51:56;3.15;;;1.70;;
17145;SDS011;8688;54.444;18.444;2023-05-07T12:54:30;3.08;;;1.90;;
17145;SDS011;8688;54.444;18.444;2023-05-07T12:57:01;4.03;;;1.80;;
17145;SDS011;8688;54.444;18.444;2023-05-07T12:59:33;4.00;;;2.30;;
17145;SDS011;8688;54.444;18.444;2023-05-07T13:02:03;2.40;;;1.65;;
17145;SDS011;8688;54.444;18.444;2023-05-07T13:04:31;4.88;;;2.30;;
17145;SDS011;8688;54.444;18.444;2023-05-07T13:06:58;4.57;;;2.00;;
17145;SDS011;8688;54.444;18.444;2023-05-07T13:09:26;3.97;;;1.88;;
17145;SDS011;8688;54.444;18.444;2023-05-07T13:11:55;2.92;;;1.73;;
17145;SDS011;8688;54.444;18.444;2023-05-07T13:14:25;2.50;;;2.17;;
17145;SDS011;8688;54.444;18.444;2023-05-07T13:16:52;5.35;;;1.95;;
17145;SDS011;8688;54.444;18.444;2023-05-07T13:19:20;5.20;;;2.10;;
17145;SDS011;8688;54.444;18.444;2023-05-07T13:21:47;3.83;;;1.67;;
17145;SDS011;8688;54.444;18.444;2023-05-07T13:24:16;4.13;;;1.80;;
17145;SDS011;8688;54.444;18.444;2023-05-07T13:26:43;7.00;;;2.13;;
17145;SDS011;8688;54.444;18.444;2023-05-07T13:29:12;6.25;;;2.30;;
17145;SDS011;8688;54.444;18.444;2023-05-07T13:31:40;5.57;;;2.40;;
17145;SDS011;8688;54.444;18.444;2023-05-07T13:34:09;6.55;;;2.45;;
17145;SDS011;8688;54.444;18.444;2023-05-07T13:36:36;4.93;;;2.13;;
17145;SDS011;8688;54.444;18.444;2023-05-07T13:39:05;4.90;;;2.28;;
17145;SDS011;8688;54.444;18.444;2023-05-07T13:41:32;6.18;;;2.30;;
17145;SDS011;8688;54.444;18.444;2023-05-07T13:44:00;6.13;;;2.47;;
17145;SDS011;8688;54.444;18.444;2023-05-07T13:46:29;5.47;;;2.53;;
17145;SDS011;8688;54.444;18.444;2023-05-07T13:48:57;4.57;;;2.35;;
17145;SDS011;8688;54.444;18.444;2023-05-07T13:51:25;3.80;;;2.20;;
17145;SDS011;8688;54.444;18.444;2023-05-07T13:53:53;4.53;;;2.65;;
17145;SDS011;8688;54.444;18.444;2023-05-07T13:56:20;3.70;;;2.22;;
17145;SDS011;8688;54.444;18.444;2023-05-07T13:58:48;5.00;;;2.30;;
17145;SDS011;8688;54.444;18.444;2023-05-07T14:01:15;6.43;;;2.90;;
17145;SDS011;8688;54.444;18.444;2023-05-07T14:03:44;4.78;;;2.20;;
17145;SDS011;8688;54.444;18.444;2023-05-07T14:06:12;6.45;;;3.00;;
17145;SDS011;8688;54.444;18.444;2023-05-07T14:08:39;6.13;;;2.78;;
17145;SDS011;8688;54.444;18.444;2023-05-07T14:11:07;8.07;;;2.70;;
17145;SDS011;8688;54.444;18.444;2023-05-07T14:13:35;5.70;;;3.15;;
17145;SDS011;8688;54.444;18.444;2023-05-07T14:16:03;6.15;;;2.40;;
17145;SDS011;8688;54.444;18.444;2023-05-07T14:18:32;3.90;;;2.22;;
17145;SDS011;8688;54.444;18.444;2023-05-07T14:21:04;4.70;;;2.63;;
17145;SDS011;8688;54.444;18.444;2023-05-07T14:23:34;4.57;;;2.85;;
17145;SDS011;8688;54.444;18.444;2023-05-07T14:26:02;4.35;;;2.42;;
17145;SDS011;8688;54.444;18.444;2023-05-07T14:28:29;4.80;;;2.45;;
17145;SDS011;8688;54.444;18.444;2023-05-07T14:30:57;4.80;;;2.40;;
17145;SDS011;8688;54.444;18.444;2023-05-07T14:33:25;6.28;;;2.40;;
17145;SDS011;8688;54.444;18.444;2023-05-07T14:35:52;4.10;;;2.10;;
17145;SDS011;8688;54.444;18.444;2023-05-07T14:38:21;6.00;;;2.80;;
17145;SDS011;8688;54.444;18.444;2023-05-07T14:40:49;5.10;;;2.55;;
17145;SDS011;8688;54.444;18.444;2023-05-07T14:43:17;6.63;;;3.13;;
17145;SDS011;8688;54.444;18.444;2023-05-07T14:45:45;4.60;;;2.80;;
17145;SDS011;8688;54.444;18.444;2023-05-07T14:48:13;5.72;;;2.80;;
17145;SDS011;8688;54.444;18.444;2023-05-07T14:50:41;8.70;;;2.83;;
17145;SDS011;8688;54.444;18.444;2023-05-07T14:53:10;4.68;;;2.55;;
17145;SDS011;8688;54.444;18.444;2023-05-07T14:55:39;22.60;;;3.53;;
17145;SDS011;8688;54.444;18.444;2023-05-07T14:58:06;7.18;;;3.20;;
17145;SDS011;8688;54.444;18.444;2023-05-07T15:00:34;6.03;;;3.00;;
17145;SDS011;8688;54.444;18.444;2023-05-07T15:03:04;7.07;;;3.08;;
17145;SDS011;8688;54.444;18.444;2023-05-07T15:05:33;9.05;;;3.30;;
17145;SDS011;8688;54.444;18.444;2023-05-07T15:08:02;5.15;;;3.03;;